Time;durP1;ratioP1;P1;durP2;ratioP2;P2;SDS_P1;SDS_P2;PMS_P1;PMS_P2;Temp;Humidity;BMP_temperature;BMP_pressure;BME280_temperature;BME280_humidity;BME280_pressure;Samples;Min_cycle;Max_cycle;Signal;HPM_P1;HPM_P2
2021/12/30 00:54:25;;;;;;;1.90;1.80;;;5.00;99.90;;;;;;7356488;19;20400;31
2021/12/30 02:31:26;;;;;;;2.75;2.40;;;5.00;99.90;;;;;;7357956;19;20417;-81
2021/12/30 04:32:14;;;;;;;2.60;2.40;;;5.30;99.90;;;;;;7366190;19;20324;-81
2021/12/30 06:12:37;;;;;;;5.90;5.30;;;7.50;99.90;;;;;;7318554;19;20335;-80
2021/12/30 06:30:41;;;;;;;5.30;4.40;;;7.60;99.90;;;;;;7321555;19;20357;-79
2021/12/30 06:33:39;;;;;;;5.25;4.20;;;7.70;99.90;;;;;;7328279;19;21461;-81
2021/12/30 06:48:21;;;;;;;5.72;4.57;;;7.80;99.90;;;;;;7300203;19;20369;-80
2021/12/30 06:56:43;;;;;;;7.97;5.00;;;7.70;99.90;;;;;;7289441;19;21593;-79
2021/12/30 08:47:07;;;;;;;3.58;3.25;;;7.70;99.90;;;;;;7404823;19;20341;-80
2021/12/30 08:50:03;;;;;;;4.40;3.40;;;7.70;99.90;;;;;;7420363;19;20348;-80
2021/12/30 08:53:04;;;;;;;3.22;2.92;;;7.60;99.90;;;;;;7273858;19;2004423;-80
2021/12/30 08:56:17;;;;;;;2.78;2.58;;;7.60;99.90;;;;;;7402812;19;20332;-80
2021/12/30 08:59:16;;;;;;;3.15;2.85;;;7.60;99.90;;;;;;7392739;19;20313;-80
2021/12/30 09:02:30;;;;;;;3.25;2.50;;;7.60;99.90;;;;;;7362809;19;20323;-80
2021/12/30 09:06:05;;;;;;;3.17;2.90;;;7.70;99.90;;;;;;7369726;19;20341;-80
2021/12/30 09:09:32;;;;;;;4.25;3.42;;;7.70;99.90;;;;;;7365638;19;20405;-81
2021/12/30 09:13:15;;;;;;;4.90;4.22;;;7.80;99.90;;;;;;7347437;19;20351;-81
2021/12/30 09:15:46;;;;;;;5.00;3.40;;;7.80;99.90;;;;;;7413044;19;20308;-81
2021/12/30 09:18:18;;;;;;;4.85;3.22;;;7.80;99.90;;;;;;7255967;19;2012441;-80
2021/12/30 09:21:30;;;;;;;3.17;2.97;;;7.70;99.90;;;;;;7315879;19;2004287;-81
2021/12/30 09:24:29;;;;;;;3.97;3.63;;;7.70;99.90;;;;;;7372363;19;20413;-81
2021/12/30 09:27:32;;;;;;;4.13;3.57;;;7.80;99.90;;;;;;7313901;19;2004573;-80
2021/12/30 09:30:55;;;;;;;4.07;3.38;;;7.80;99.90;;;;;;7401357;19;20382;-80
2021/12/30 09:34:20;;;;;;;4.45;3.08;;;7.80;99.90;;;;;;7366613;19;20359;-81
2021/12/30 09:37:12;;;;;;;4.55;3.92;;;7.90;99.90;;;;;;7421206;19;20381;-80
2021/12/30 09:40:14;;;;;;;4.10;3.70;;;8.00;99.90;;;;;;7422864;19;20344;-79
2021/12/30 09:43:54;;;;;;;4.03;2.83;;;8.00;99.90;;;;;;7426952;19;20375;-80
2021/12/30 09:47:12;;;;;;;4.57;3.13;;;8.10;99.90;;;;;;7428631;19;20352;-81
2021/12/30 09:50:58;;;;;;;3.88;3.28;;;8.20;99.90;;;;;;7356530;19;20361;-81
2021/12/30 09:53:39;;;;;;;3.63;3.30;;;8.20;99.90;;;;;;7112165;19;2004368;-78
2021/12/30 09:56:26;;;;;;;3.38;3.08;;;8.30;99.90;;;;;;7422476;19;20349;-80
2021/12/30 09:59:24;;;;;;;3.40;3.10;;;8.30;99.90;;;;;;7298628;19;20344;-84
2021/12/30 10:02:34;;;;;;;3.70;3.20;;;8.40;99.90;;;;;;7397614;19;20304;-82
2021/12/30 10:05:51;;;;;;;3.60;3.30;;;8.50;99.90;;;;;;7144093;19;2004415;-81
2021/12/30 10:09:50;;;;;;;4.30;3.00;;;8.60;99.90;;;;;;7399989;19;20347;-82
2021/12/30 10:13:29;;;;;;;3.75;3.45;;;8.80;99.90;;;;;;7411544;19;20297;-82
2021/12/30 10:16:48;;;;;;;5.88;4.10;;;8.90;99.90;;;;;;7081839;19;2004381;-86
2021/12/30 10:19:14;;;;;;;7.80;5.77;;;8.80;99.90;;;;;;7250880;19;2004601;-84
2021/12/30 10:21:41;;;;;;;3.85;3.08;;;9.00;99.90;;;;;;7398762;19;20681;-83
2021/12/30 10:24:09;;;;;;;4.25;3.30;;;9.00;99.90;;;;;;7398928;19;20321;-81
2021/12/30 10:27:30;;;;;;;4.57;4.18;;;9.00;99.90;;;;;;7409926;19;20737;-84
2021/12/30 10:30:34;;;;;;;6.88;4.38;;;9.10;99.90;;;;;;7284841;19;2004397;-80
2021/12/30 10:33:10;;;;;;;8.80;5.70;;;9.20;99.90;;;;;;7385279;19;20319;-79
2021/12/30 10:35:36;;;;;;;9.05;6.25;;;9.20;99.90;;;;;;7379397;19;20336;-82
2021/12/30 10:38:04;;;;;;;7.65;5.28;;;9.20;99.90;;;;;;7403315;19;20308;-79
2021/12/30 10:40:51;;;;;;;5.35;4.85;;;9.20;99.90;;;;;;7278644;19;2004625;-81
2021/12/30 10:43:47;;;;;;;4.80;4.40;;;9.30;99.90;;;;;;7301959;19;2004411;-86
2021/12/30 10:46:44;;;;;;;3.20;2.90;;;9.30;99.90;;;;;;7407688;19;20324;-81
2021/12/30 10:49:26;;;;;;;6.35;4.43;;;9.40;99.90;;;;;;7355435;19;20815;-84
2021/12/30 10:51:55;;;;;;;6.15;4.72;;;9.40;99.90;;;;;;7407999;19;20863;-86
2021/12/30 10:54:25;;;;;;;6.40;4.57;;;9.40;99.90;;;;;;7403732;19;20319;-82
2021/12/30 10:57:07;;;;;;;3.22;2.85;;;9.40;99.90;;;;;;7406329;19;21306;-83
2021/12/30 10:59:38;;;;;;;5.45;3.95;;;9.40;99.90;;;;;;7409771;19;20353;-87
2021/12/30 11:02:28;;;;;;;3.92;3.03;;;9.40;99.90;;;;;;7403854;19;20475;-83
2021/12/30 11:05:04;;;;;;;5.47;3.23;;;9.40;99.90;;;;;;7297596;19;2004408;-83
2021/12/30 11:07:51;;;;;;;4.65;3.50;;;9.40;99.90;;;;;;7399657;19;20340;-79
2021/12/30 11:10:28;;;;;;;5.50;4.60;;;9.30;99.90;;;;;;7300212;19;2004528;-80
2021/12/30 11:12:53;;;;;;;5.97;3.78;;;9.40;99.90;;;;;;7398756;19;20321;-81
2021/12/30 11:15:21;;;;;;;6.95;4.88;;;9.40;99.90;;;;;;7398108;19;20360;-81
2021/12/30 11:17:47;;;;;;;8.25;5.63;;;9.30;99.90;;;;;;7394351;19;20344;-81
2021/12/30 11:20:15;;;;;;;6.00;4.38;;;9.30;99.90;;;;;;7394561;19;20316;-83
2021/12/30 11:22:42;;;;;;;3.53;2.38;;;9.40;99.90;;;;;;7393258;19;20894;-82
2021/12/30 11:25:13;;;;;;;4.10;2.90;;;9.40;99.90;;;;;;7396215;19;20320;-85
2021/12/30 11:27:39;;;;;;;3.45;2.60;;;9.60;99.90;;;;;;7394156;19;20352;-81
2021/12/30 11:30:42;;;;;;;3.67;2.40;;;9.80;99.90;;;;;;7401513;19;20416;-82
2021/12/30 11:33:08;;;;;;;3.47;2.55;;;9.80;99.90;;;;;;7194720;19;2004457;-81
2021/12/30 11:35:34;;;;;;;6.22;2.65;;;9.90;99.90;;;;;;7397095;19;20352;-83
2021/12/30 11:38:00;;;;;;;3.83;2.70;;;10.00;99.90;;;;;;7397366;19;20301;-84
2021/12/30 11:40:26;;;;;;;5.05;2.70;;;10.00;99.90;;;;;;7398307;19;20428;-85
2021/12/30 11:42:56;;;;;;;4.60;2.67;;;10.00;99.90;;;;;;7394553;19;20345;-82
2021/12/30 11:45:44;;;;;;;2.53;2.33;;;10.10;99.90;;;;;;7393522;19;20824;-80
2021/12/30 11:48:28;;;;;;;3.60;2.35;;;10.10;99.90;;;;;;7396849;19;20348;-80
2021/12/30 11:51:12;;;;;;;5.15;2.60;;;10.10;99.90;;;;;;7394352;19;20336;-80
2021/12/30 11:53:38;;;;;;;2.78;2.33;;;10.20;99.90;;;;;;7293251;19;2005599;-80
2021/12/30 11:56:04;;;;;;;7.13;2.55;;;10.20;99.90;;;;;;7392526;19;20342;-82
2021/12/30 11:58:45;;;;;;;2.33;2.10;;;10.20;99.90;;;;;;7390341;19;20340;-80
2021/12/30 12:01:13;;;;;;;3.97;2.50;;;10.20;99.90;;;;;;7395527;19;20672;-86
2021/12/30 12:03:40;;;;;;;2.70;2.38;;;10.20;99.90;;;;;;7393489;19;20332;-81
2021/12/30 12:06:34;;;;;;;2.70;2.20;;;10.20;99.90;;;;;;7396318;19;20343;-80
2021/12/30 12:09:32;;;;;;;5.63;2.90;;;10.20;99.90;;;;;;7295019;19;2004401;-79
2021/12/30 12:11:59;;;;;;;6.30;5.23;;;10.30;99.90;;;;;;7394203;19;20304;-84
2021/12/30 12:14:30;;;;;;;3.00;2.63;;;10.30;99.90;;;;;;7391596;19;20340;-81
2021/12/30 12:17:03;;;;;;;4.17;2.30;;;10.30;99.90;;;;;;7393391;19;20337;-81
2021/12/30 12:20:05;;;;;;;2.67;2.00;;;10.40;99.90;;;;;;7392233;19;20340;-82
2021/12/30 12:22:31;;;;;;;3.38;2.33;;;10.40;99.90;;;;;;7285478;19;2007953;-80
2021/12/30 12:25:13;;;;;;;2.63;2.20;;;10.40;99.90;;;;;;7386968;19;21089;-78
2021/12/30 12:27:42;;;;;;;2.53;2.15;;;10.40;99.90;;;;;;7387260;19;20373;-83
2021/12/30 12:30:33;;;;;;;2.13;1.92;;;10.40;99.90;;;;;;7390213;19;20345;-82
2021/12/30 12:33:00;;;;;;;3.80;2.10;;;10.40;99.90;;;;;;7389612;19;20300;-78
2021/12/30 12:35:29;;;;;;;2.60;2.10;;;10.50;99.90;;;;;;7388992;19;20376;-81
2021/12/30 12:37:59;;;;;;;2.33;1.98;;;10.50;99.90;;;;;;7385068;19;20355;-81
2021/12/30 12:40:27;;;;;;;2.63;1.90;;;10.50;99.90;;;;;;7389091;19;20344;-82
2021/12/30 12:42:55;;;;;;;2.20;2.00;;;10.50;99.90;;;;;;7389548;19;20324;-80
2021/12/30 12:45:48;;;;;;;2.42;2.08;;;10.50;99.90;;;;;;7389097;19;20316;-81
2021/12/30 12:48:25;;;;;;;5.47;2.13;;;10.50;99.90;;;;;;7293293;19;2007636;-80
2021/12/30 12:51:01;;;;;;;3.33;2.00;;;10.60;99.90;;;;;;7295994;19;2009863;-81
2021/12/30 12:53:33;;;;;;;5.23;2.40;;;10.50;99.90;;;;;;7295447;19;2007107;-81
2021/12/30 12:56:00;;;;;;;5.80;2.78;;;10.60;99.90;;;;;;7397528;19;20457;-83
2021/12/30 12:58:28;;;;;;;5.00;3.27;;;10.60;99.90;;;;;;7375119;19;20337;-81
2021/12/30 13:00:55;;;;;;;7.15;5.30;;;10.50;99.90;;;;;;7398283;19;20307;-81
2021/12/30 13:03:21;;;;;;;13.10;8.50;;;10.50;99.90;;;;;;7393873;19;20317;-84
2021/12/30 13:05:59;;;;;;;10.70;8.63;;;10.40;99.90;;;;;;7398473;19;20348;-79
2021/12/30 13:08:25;;;;;;;6.90;5.00;;;10.30;99.90;;;;;;7392502;19;20347;-81
2021/12/30 13:10:52;;;;;;;6.20;4.83;;;10.30;99.90;;;;;;7394105;19;20376;-80
2021/12/30 13:13:33;;;;;;;5.33;4.27;;;10.20;99.90;;;;;;7393434;19;20329;-80
2021/12/30 13:16:00;;;;;;;5.55;3.20;;;10.10;99.90;;;;;;7397754;19;20309;-82
2021/12/30 13:18:26;;;;;;;5.30;3.28;;;10.10;99.90;;;;;;7394787;19;20312;-79
2021/12/30 13:20:52;;;;;;;3.95;2.70;;;10.10;99.90;;;;;;7382315;19;20653;-79
2021/12/30 13:23:31;;;;;;;5.50;2.30;;;10.10;99.90;;;;;;7392308;19;20889;-82
2021/12/30 13:26:03;;;;;;;5.90;2.33;;;10.00;99.90;;;;;;7403680;19;20293;-82
2021/12/30 13:28:29;;;;;;;3.88;2.45;;;10.00;99.90;;;;;;7411207;19;20757;-86
2021/12/30 13:31:08;;;;;;;3.22;2.22;;;10.00;99.90;;;;;;7407189;19;20328;-82
2021/12/30 13:33:34;;;;;;;2.70;1.98;;;10.10;99.90;;;;;;7401364;19;20355;-81
2021/12/30 13:36:15;;;;;;;2.10;1.95;;;10.00;99.90;;;;;;7399046;19;20320;-82
2021/12/30 13:38:41;;;;;;;4.40;2.78;;;10.00;99.90;;;;;;7307578;19;2020038;-86
2021/12/30 13:41:57;;;;;;;3.50;2.28;;;10.00;99.90;;;;;;7420427;19;20372;-90
2021/12/30 13:44:23;;;;;;;3.03;2.72;;;10.00;99.90;;;;;;7302722;19;2008330;-81
2021/12/30 13:46:49;;;;;;;2.95;2.67;;;10.00;99.90;;;;;;7411887;19;20335;-82
2021/12/30 13:49:15;;;;;;;1.90;1.80;;;9.90;99.90;;;;;;7409011;19;20308;-87
2021/12/30 13:51:40;;;;;;;4.40;3.00;;;9.90;99.90;;;;;;7410008;19;21469;-83
2021/12/30 13:54:07;;;;;;;8.53;7.10;;;9.90;99.90;;;;;;7413642;19;20316;-83
2021/12/30 13:56:33;;;;;;;4.35;3.00;;;9.90;99.90;;;;;;7417887;19;20355;-83
2021/12/30 13:59:02;;;;;;;5.10;2.72;;;9.80;99.90;;;;;;7416968;19;20305;-83
2021/12/30 14:01:31;;;;;;;2.90;2.40;;;9.80;99.90;;;;;;7416876;19;20321;-90
2021/12/30 14:04:17;;;;;;;11.07;9.33;;;9.70;99.90;;;;;;7420929;19;20322;-88
2021/12/30 14:06:44;;;;;;;8.52;6.72;;;9.80;99.90;;;;;;7421757;19;20357;-90
2021/12/30 14:09:16;;;;;;;4.60;3.95;;;9.70;99.90;;;;;;7424567;19;20335;-90
2021/12/30 14:11:47;;;;;;;15.13;13.48;;;9.80;99.90;;;;;;7318835;19;2020275;-88
2021/12/30 14:14:16;;;;;;;5.20;2.90;;;9.80;99.90;;;;;;7421059;19;20727;-88
2021/12/30 14:16:43;;;;;;;6.50;5.85;;;9.70;99.90;;;;;;7419249;19;20336;-85
2021/12/30 14:19:11;;;;;;;5.23;4.73;;;9.70;99.90;;;;;;7422382;19;20312;-87
2021/12/30 14:21:40;;;;;;;5.72;3.80;;;9.70;99.90;;;;;;7421816;19;20387;-90
2021/12/30 14:24:20;;;;;;;3.40;3.10;;;9.70;99.90;;;;;;7422516;19;20340;-90
2021/12/30 14:26:46;;;;;;;2.77;2.57;;;9.70;99.90;;;;;;7425465;19;20332;-84
2021/12/30 14:29:17;;;;;;;7.57;5.20;;;9.70;99.90;;;;;;7419638;19;20304;-91
2021/12/30 14:31:47;;;;;;;4.35;3.95;;;9.70;99.90;;;;;;7417273;19;20569;-84
2021/12/30 14:34:19;;;;;;;10.25;6.47;;;9.70;99.90;;;;;;7414885;19;20305;-82
2021/12/30 14:37:08;;;;;;;10.73;9.20;;;9.70;99.90;;;;;;7414319;19;20309;-84
2021/12/30 14:39:59;;;;;;;8.82;7.05;;;9.70;99.90;;;;;;7310860;19;2004351;-81
2021/12/30 14:42:31;;;;;;;11.68;10.38;;;9.70;99.90;;;;;;7318956;19;2004394;-89
2021/12/30 14:45:22;;;;;;;9.60;7.93;;;9.70;99.90;;;;;;7424007;19;20355;-88
2021/12/30 14:48:02;;;;;;;11.18;9.23;;;9.70;99.90;;;;;;7425225;19;20352;-85
2021/12/30 14:50:29;;;;;;;9.63;7.40;;;9.70;99.90;;;;;;7420888;19;20352;-92
2021/12/30 14:53:02;;;;;;;7.68;6.28;;;9.70;99.90;;;;;;7424331;19;20370;-89
2021/12/30 14:55:34;;;;;;;4.50;4.10;;;9.70;99.90;;;;;;7423198;19;20337;-89
2021/12/30 14:58:02;;;;;;;6.40;5.22;;;9.70;99.90;;;;;;7422135;19;20323;-87
2021/12/30 15:00:29;;;;;;;15.07;13.48;;;9.70;99.90;;;;;;7419145;19;20384;-88
2021/12/30 15:02:55;;;;;;;16.05;13.05;;;9.70;99.90;;;;;;7400397;19;20368;-89
2021/12/30 15:05:21;;;;;;;11.20;9.10;;;9.80;99.90;;;;;;7420933;19;20321;-88
2021/12/30 15:07:47;;;;;;;11.35;9.55;;;9.70;99.90;;;;;;7422893;19;20321;-87
2021/12/30 15:10:14;;;;;;;11.45;10.25;;;9.70;99.90;;;;;;7419122;19;20332;-88
2021/12/30 15:12:41;;;;;;;4.50;4.07;;;9.70;99.90;;;;;;7422798;19;20338;-87
2021/12/30 15:15:08;;;;;;;9.43;7.75;;;9.70;99.90;;;;;;7420560;19;20323;-87
2021/12/30 15:17:34;;;;;;;6.00;5.20;;;9.70;99.90;;;;;;7422142;19;20312;-88
2021/12/30 15:20:01;;;;;;;5.25;3.90;;;9.70;99.90;;;;;;7421987;19;20323;-87
2021/12/30 15:22:26;;;;;;;6.28;5.03;;;9.70;99.90;;;;;;7422633;19;20331;-90
2021/12/30 15:24:52;;;;;;;12.60;10.73;;;9.80;99.90;;;;;;7420406;19;20312;-90
2021/12/30 15:27:18;;;;;;;7.47;4.23;;;9.70;99.90;;;;;;7421943;19;20327;-85
2021/12/30 15:29:44;;;;;;;5.72;4.22;;;9.80;99.90;;;;;;7421934;19;20337;-88
2021/12/30 15:32:09;;;;;;;6.95;4.82;;;9.80;99.90;;;;;;7421487;19;20403;-89
2021/12/30 15:34:35;;;;;;;4.00;3.70;;;9.80;99.90;;;;;;7421485;19;20336;-84
2021/12/30 15:37:01;;;;;;;3.90;2.92;;;9.80;99.90;;;;;;7419453;19;20308;-85
2021/12/30 15:39:27;;;;;;;8.93;8.00;;;9.90;99.90;;;;;;7418248;19;20313;-86
2021/12/30 15:41:53;;;;;;;10.30;8.40;;;9.80;99.90;;;;;;7417139;19;20349;-89
2021/12/30 15:44:19;;;;;;;5.18;4.15;;;9.90;99.90;;;;;;7416829;19;20313;-86
2021/12/30 15:46:45;;;;;;;3.53;3.22;;;9.90;99.90;;;;;;7416319;19;20297;-86
2021/12/30 15:49:11;;;;;;;3.10;2.80;;;9.90;99.90;;;;;;7417329;19;20360;-89
2021/12/30 15:51:38;;;;;;;5.95;5.35;;;9.90;99.90;;;;;;7418873;19;20328;-90
2021/12/30 15:54:04;;;;;;;5.10;4.63;;;10.10;99.90;;;;;;7418628;19;20297;-85
2021/12/30 15:56:30;;;;;;;4.18;3.83;;;10.00;99.90;;;;;;7420073;19;20382;-89
2021/12/30 15:58:55;;;;;;;6.47;5.82;;;10.00;99.90;;;;;;7418194;19;20348;-88
2021/12/30 16:01:21;;;;;;;8.83;7.33;;;10.00;99.90;;;;;;7420189;19;20315;-87
2021/12/30 16:03:47;;;;;;;12.75;10.23;;;10.00;99.90;;;;;;7417759;19;20341;-85
2021/12/30 16:06:15;;;;;;;11.87;8.40;;;10.10;99.90;;;;;;7408021;19;20319;-86
2021/12/30 16:08:41;;;;;;;7.00;6.23;;;10.10;99.90;;;;;;7417543;19;20315;-87
2021/12/30 16:11:07;;;;;;;7.05;6.05;;;10.10;99.90;;;;;;7412698;19;20361;-89
2021/12/30 16:13:32;;;;;;;8.02;6.15;;;10.10;99.90;;;;;;7417035;19;20383;-84
2021/12/30 16:15:58;;;;;;;2.67;2.47;;;10.10;99.90;;;;;;7420695;19;20404;-92
2021/12/30 16:18:24;;;;;;;1.80;1.70;;;10.10;99.90;;;;;;7417916;19;20332;-91
2021/12/30 16:20:50;;;;;;;1.88;1.50;;;10.20;99.90;;;;;;7424200;19;20356;-87
2021/12/30 16:23:17;;;;;;;2.70;1.80;;;10.30;99.90;;;;;;7423341;19;20312;-91
2021/12/30 16:25:42;;;;;;;2.05;1.95;;;10.40;99.90;;;;;;7424284;19;20332;-86
2021/12/30 16:28:08;;;;;;;2.03;1.80;;;10.40;99.90;;;;;;7427580;19;20369;-91
2021/12/30 16:30:34;;;;;;;3.35;2.95;;;10.40;99.90;;;;;;7412490;19;20359;-93
2021/12/30 16:32:59;;;;;;;3.27;2.47;;;10.40;99.90;;;;;;7425270;19;20356;-92
2021/12/30 16:35:25;;;;;;;2.35;2.00;;;10.60;99.90;;;;;;7424296;19;20330;-93
2021/12/30 16:37:51;;;;;;;3.28;2.97;;;10.60;99.90;;;;;;7422200;19;20348;-91
2021/12/30 16:40:17;;;;;;;2.10;1.90;;;10.60;99.90;;;;;;7424366;19;20323;-92
2021/12/30 16:42:43;;;;;;;2.00;1.80;;;10.70;99.90;;;;;;7419727;19;20352;-88
2021/12/30 16:45:10;;;;;;;1.60;1.50;;;10.70;99.90;;;;;;7420245;19;20316;-91
2021/12/30 16:47:36;;;;;;;1.42;1.33;;;10.70;99.90;;;;;;7419708;19;20337;-81
2021/12/30 16:50:02;;;;;;;1.63;1.50;;;10.70;99.90;;;;;;7416949;19;20421;-84
2021/12/30 16:52:30;;;;;;;1.65;1.48;;;10.80;99.90;;;;;;7413186;19;20356;-81
2021/12/30 16:54:57;;;;;;;1.90;1.45;;;10.70;99.90;;;;;;7414474;19;20308;-84
2021/12/30 16:57:23;;;;;;;2.40;2.20;;;10.80;99.90;;;;;;7412796;19;20343;-82
2021/12/30 16:59:48;;;;;;;2.05;1.92;;;10.80;99.90;;;;;;7392120;19;20356;-83
2021/12/30 17:02:14;;;;;;;2.60;1.63;;;10.80;99.90;;;;;;7420062;19;20349;-86
2021/12/30 17:04:40;;;;;;;1.50;1.40;;;10.80;99.90;;;;;;7423744;19;20364;-87
2021/12/30 17:07:06;;;;;;;1.65;1.55;;;10.90;99.90;;;;;;7426457;19;20338;-88
2021/12/30 17:09:36;;;;;;;1.67;1.57;;;10.90;99.90;;;;;;7419638;19;20344;-85
2021/12/30 17:12:02;;;;;;;1.55;1.25;;;10.90;99.90;;;;;;7418365;19;20345;-87
2021/12/30 17:14:28;;;;;;;1.60;1.50;;;10.90;99.90;;;;;;7419479;19;20320;-89
2021/12/30 17:16:54;;;;;;;1.50;1.40;;;10.90;99.90;;;;;;7420382;19;20336;-86
2021/12/30 17:19:20;;;;;;;1.80;1.30;;;11.00;99.90;;;;;;7415127;19;20320;-86
2021/12/30 17:21:45;;;;;;;1.88;1.67;;;11.00;99.90;;;;;;7420178;19;20356;-87
2021/12/30 17:24:11;;;;;;;1.70;1.60;;;11.00;99.90;;;;;;7420730;19;20544;-85
2021/12/30 17:26:39;;;;;;;2.10;1.52;;;11.00;99.90;;;;;;7422262;19;20325;-87
2021/12/30 17:29:05;;;;;;;1.42;1.33;;;11.00;99.90;;;;;;7422335;19;20354;-86
2021/12/30 17:31:31;;;;;;;1.40;1.30;;;10.90;99.90;;;;;;7416512;19;20349;-82
2021/12/30 17:33:58;;;;;;;1.53;1.43;;;11.00;99.90;;;;;;7416989;19;20343;-85
2021/12/30 17:36:25;;;;;;;2.83;2.53;;;11.00;99.90;;;;;;7419448;19;20312;-83
2021/12/30 17:38:52;;;;;;;1.38;1.30;;;11.00;99.90;;;;;;7416041;19;20367;-85
2021/12/30 17:41:18;;;;;;;1.50;1.40;;;11.00;99.90;;;;;;7418532;19;20368;-91
2021/12/30 17:43:47;;;;;;;1.17;1.17;;;11.00;99.90;;;;;;7402342;19;20352;-83
2021/12/30 17:46:12;;;;;;;1.52;1.42;;;11.00;99.90;;;;;;7412616;19;20344;-84
2021/12/30 17:48:38;;;;;;;1.42;1.20;;;11.00;99.90;;;;;;7397442;19;20324;-86
2021/12/30 17:51:04;;;;;;;1.15;1.15;;;11.00;99.90;;;;;;7421053;19;20332;-89
2021/12/30 17:53:31;;;;;;;1.10;1.10;;;11.00;99.90;;;;;;7417682;19;20341;-87
2021/12/30 17:56:01;;;;;;;1.30;1.20;;;11.00;99.90;;;;;;7411763;19;20337;-83
2021/12/30 17:58:27;;;;;;;1.20;1.20;;;11.00;99.90;;;;;;7414229;19;20398;-83
2021/12/30 18:00:53;;;;;;;1.30;1.20;;;11.00;99.90;;;;;;7411294;19;20347;-84
2021/12/30 18:03:18;;;;;;;1.40;1.30;;;11.00;99.90;;;;;;7416151;19;20352;-87
2021/12/30 18:05:44;;;;;;;1.83;1.73;;;11.00;99.90;;;;;;7417849;19;20381;-88
2021/12/30 18:08:10;;;;;;;1.40;1.30;;;11.00;99.90;;;;;;7420276;19;20371;-91
2021/12/30 18:10:36;;;;;;;2.60;1.15;;;11.00;99.90;;;;;;7420394;19;20304;-83
2021/12/30 18:13:03;;;;;;;1.40;1.30;;;11.00;99.90;;;;;;7391067;19;20376;-88
2021/12/30 18:15:30;;;;;;;1.17;1.17;;;11.00;99.90;;;;;;7397530;19;20341;-87
2021/12/30 18:17:55;;;;;;;1.00;1.00;;;11.00;99.90;;;;;;7416780;19;20309;-86
2021/12/30 18:20:21;;;;;;;1.27;1.17;;;11.00;99.90;;;;;;7417560;19;20312;-86
2021/12/30 18:22:47;;;;;;;0.90;0.90;;;11.00;99.90;;;;;;7414492;19;20451;-83
2021/12/30 18:25:13;;;;;;;3.33;1.35;;;11.00;99.90;;;;;;7415468;19;20335;-89
2021/12/30 18:27:39;;;;;;;1.40;1.30;;;11.10;99.90;;;;;;7414460;19;20345;-82
2021/12/30 18:30:08;;;;;;;1.70;1.07;;;10.90;99.90;;;;;;7393531;19;20324;-85
2021/12/30 18:32:34;;;;;;;1.45;1.35;;;10.90;99.90;;;;;;7413550;19;20312;-81
2021/12/30 18:35:00;;;;;;;1.40;1.20;;;10.90;99.90;;;;;;7413178;19;20333;-83
2021/12/30 18:37:26;;;;;;;1.30;1.20;;;10.90;99.90;;;;;;7417273;19;20316;-87
2021/12/30 18:39:52;;;;;;;1.33;1.23;;;10.90;99.90;;;;;;7415288;19;20341;-82
2021/12/30 18:42:18;;;;;;;1.17;1.17;;;11.00;99.90;;;;;;7390810;19;20339;-82
2021/12/30 18:44:44;;;;;;;1.50;1.40;;;10.90;99.90;;;;;;7414439;19;20309;-88
2021/12/30 18:47:09;;;;;;;1.40;1.30;;;11.00;99.90;;;;;;7415564;19;20321;-84
2021/12/30 18:49:36;;;;;;;1.50;1.40;;;11.00;99.90;;;;;;7411217;19;20361;-87
2021/12/30 18:52:03;;;;;;;2.00;1.47;;;11.00;99.90;;;;;;7408486;19;20305;-84
2021/12/30 18:54:28;;;;;;;1.60;1.50;;;11.00;99.90;;;;;;7411292;19;20353;-82
2021/12/30 18:56:54;;;;;;;1.67;1.58;;;11.00;99.90;;;;;;7405541;19;20341;-87
2021/12/30 18:59:20;;;;;;;1.50;1.40;;;11.00;99.90;;;;;;7408055;19;20874;-79
2021/12/30 19:01:48;;;;;;;1.42;1.33;;;11.10;99.90;;;;;;7408872;19;20356;-86
2021/12/30 19:04:14;;;;;;;1.43;1.33;;;11.10;99.90;;;;;;7413269;19;20332;-84
2021/12/30 19:06:40;;;;;;;1.40;1.30;;;11.10;99.90;;;;;;7389981;19;20432;-81
2021/12/30 19:09:06;;;;;;;1.50;1.40;;;11.10;99.90;;;;;;7396673;19;20357;-88
2021/12/30 19:11:32;;;;;;;1.50;1.40;;;11.20;99.90;;;;;;7413162;19;20332;-88
2021/12/30 19:13:58;;;;;;;1.63;1.52;;;11.10;99.90;;;;;;7419061;19;20340;-87
2021/12/30 19:16:27;;;;;;;1.30;1.20;;;11.20;99.90;;;;;;7415626;19;20340;-87
2021/12/30 19:18:52;;;;;;;2.05;1.92;;;11.20;99.90;;;;;;7419060;19;20344;-90
2021/12/30 19:21:18;;;;;;;3.00;2.80;;;11.20;99.90;;;;;;7415228;19;20356;-82
2021/12/30 19:23:49;;;;;;;1.75;1.65;;;11.30;99.90;;;;;;7415606;19;20329;-90
2021/12/30 19:26:14;;;;;;;1.50;1.40;;;11.30;99.90;;;;;;7394220;19;20316;-89
2021/12/30 19:28:41;;;;;;;1.30;1.15;;;11.30;99.90;;;;;;7409436;19;20399;-87
2021/12/30 19:31:09;;;;;;;1.45;1.30;;;11.40;99.90;;;;;;7416902;19;20349;-84
2021/12/30 19:33:35;;;;;;;2.92;1.50;;;11.30;99.90;;;;;;7416679;19;20384;-85
2021/12/30 19:36:07;;;;;;;2.20;1.40;;;11.30;99.90;;;;;;7412526;19;20343;-83
2021/12/30 19:38:34;;;;;;;1.33;1.23;;;11.30;99.90;;;;;;7412115;19;20720;-91
2021/12/30 19:41:06;;;;;;;1.38;1.27;;;11.30;99.90;;;;;;7410842;19;20344;-85
2021/12/30 19:43:43;;;;;;;1.45;1.35;;;11.40;99.90;;;;;;7414680;19;20324;-90
2021/12/30 19:46:13;;;;;;;1.40;1.20;;;11.30;99.90;;;;;;7313879;19;2004385;-85
2021/12/30 19:48:39;;;;;;;1.00;1.00;;;11.40;99.90;;;;;;7411248;19;20359;-84
2021/12/30 19:51:05;;;;;;;1.03;1.03;;;11.30;99.90;;;;;;7410902;19;20362;-85
2021/12/30 19:53:31;;;;;;;1.27;1.20;;;11.40;99.90;;;;;;7412353;19;20336;-86
2021/12/30 19:55:59;;;;;;;1.83;1.15;;;11.40;99.90;;;;;;7413022;19;20816;-87
2021/12/30 19:58:25;;;;;;;1.30;1.20;;;11.40;99.90;;;;;;7368712;19;20373;-86
2021/12/30 20:00:51;;;;;;;1.27;1.17;;;11.40;99.90;;;;;;7393774;19;20305;-84
2021/12/30 20:03:22;;;;;;;1.80;1.27;;;11.50;99.90;;;;;;7393442;19;20333;-86
2021/12/30 20:05:52;;;;;;;3.22;1.00;;;11.50;99.90;;;;;;7385865;19;20444;-83
2021/12/30 20:08:22;;;;;;;1.00;1.00;;;11.40;99.90;;;;;;7409433;19;20329;-86
2021/12/30 20:10:48;;;;;;;1.30;1.20;;;11.50;99.90;;;;;;7410639;19;20352;-89
2021/12/30 20:13:17;;;;;;;1.30;1.10;;;11.50;99.90;;;;;;7407043;19;20337;-87
2021/12/30 20:15:43;;;;;;;2.05;1.25;;;11.50;99.90;;;;;;7413265;19;20356;-83
2021/12/30 20:18:17;;;;;;;1.40;1.20;;;11.50;99.90;;;;;;7408394;19;20805;-87
2021/12/30 20:20:50;;;;;;;1.15;1.15;;;11.60;99.90;;;;;;7381235;19;20320;-85
2021/12/30 20:23:16;;;;;;;1.27;1.20;;;11.60;99.90;;;;;;7407847;19;20360;-89
2021/12/30 20:25:47;;;;;;;1.33;1.23;;;11.60;99.90;;;;;;7406637;19;20339;-89
2021/12/30 20:28:16;;;;;;;1.50;1.40;;;11.60;99.90;;;;;;7408943;19;20376;-89
2021/12/30 20:30:44;;;;;;;1.10;1.10;;;11.60;99.90;;;;;;7408708;19;20363;-85
2021/12/30 20:33:10;;;;;;;1.80;1.13;;;11.70;99.90;;;;;;7407634;19;20357;-86
2021/12/30 20:35:39;;;;;;;1.23;1.17;;;11.60;99.90;;;;;;7414926;19;20332;-84
2021/12/30 20:38:10;;;;;;;1.35;1.20;;;11.60;99.90;;;;;;7390021;19;20536;-84
2021/12/30 20:40:37;;;;;;;1.33;1.23;;;11.60;99.90;;;;;;7385895;19;20345;-83
2021/12/30 20:43:05;;;;;;;0.98;0.95;;;11.60;99.90;;;;;;7386811;19;20397;-80
2021/12/30 20:45:36;;;;;;;1.00;1.00;;;11.70;99.90;;;;;;7403085;19;20340;-82
2021/12/30 20:48:07;;;;;;;1.10;1.02;;;11.60;99.90;;;;;;7303074;19;2004502;-89
2021/12/30 20:50:38;;;;;;;0.90;0.90;;;11.60;99.90;;;;;;7406246;19;20345;-90
2021/12/30 20:53:04;;;;;;;1.10;1.10;;;11.60;99.90;;;;;;7389382;19;20356;-87
2021/12/30 20:55:34;;;;;;;1.35;1.30;;;11.60;99.90;;;;;;7406869;19;20345;-82
2021/12/30 20:58:01;;;;;;;1.13;1.13;;;11.60;99.90;;;;;;7409297;19;20309;-84
2021/12/30 21:00:29;;;;;;;1.02;1.02;;;11.60;99.90;;;;;;7406023;19;20316;-84
2021/12/30 21:02:57;;;;;;;1.83;1.13;;;11.50;99.90;;;;;;7401798;19;20365;-87
2021/12/30 21:05:24;;;;;;;1.90;1.40;;;11.60;99.90;;;;;;7401077;19;20312;-85
2021/12/30 21:07:50;;;;;;;1.10;1.10;;;11.60;99.90;;;;;;7377811;19;20367;-89
2021/12/30 21:10:18;;;;;;;1.00;1.00;;;11.70;99.90;;;;;;7421341;19;20321;-86
2021/12/30 21:12:46;;;;;;;1.15;1.15;;;11.70;99.90;;;;;;7399272;19;20366;-85
2021/12/30 21:15:12;;;;;;;1.37;1.27;;;11.80;99.90;;;;;;7400158;19;20385;-88
2021/12/30 21:17:41;;;;;;;1.48;1.38;;;11.70;99.90;;;;;;7420099;19;20340;-90
2021/12/30 21:20:11;;;;;;;1.30;1.08;;;11.70;99.90;;;;;;7398623;19;20300;-85
2021/12/30 21:22:37;;;;;;;1.50;1.10;;;11.80;99.90;;;;;;7398990;19;20332;-82
2021/12/30 21:25:04;;;;;;;1.13;1.13;;;11.90;99.90;;;;;;7381875;19;20336;-84
2021/12/30 21:27:29;;;;;;;1.02;1.02;;;11.80;99.90;;;;;;7420712;19;20393;-81
2021/12/30 21:29:58;;;;;;;1.13;1.10;;;12.00;99.90;;;;;;7394666;19;20340;-86
2021/12/30 21:32:24;;;;;;;1.25;1.15;;;11.80;99.90;;;;;;7397795;19;20359;-89
2021/12/30 21:34:50;;;;;;;1.37;1.27;;;11.90;99.90;;;;;;7418305;19;20324;-88
2021/12/30 21:37:19;;;;;;;1.10;1.10;;;12.00;99.90;;;;;;7417711;19;20393;-88
2021/12/30 21:39:47;;;;;;;1.50;1.13;;;12.00;99.90;;;;;;7413756;19;20337;-82
2021/12/30 21:42:13;;;;;;;0.90;0.90;;;11.90;99.90;;;;;;7417848;19;20327;-85
2021/12/30 21:44:42;;;;;;;1.40;1.30;;;11.90;99.90;;;;;;7394450;19;20345;-86
2021/12/30 21:47:11;;;;;;;1.20;1.20;;;11.80;99.90;;;;;;7390984;19;20308;-86